Terminal Aerodrome Forecast
Issued by NWS

Home | Current Version | Previous Version | Text Only | Print | Product List | Glossary On
Versions: 1 2 3 4 5 6 7 8 9 10 11 12 13 14 15 16 17
195
FTUS43 KICT 270522
TAFCNU
TAF
KCNU 270522Z 2706/2806 31005KT P6SM FEW040
      TEMPO 2708/2712 4SM BR
     FM271700 15007KT P6SM SCT110 BKN250
     FM272300 11008KT P6SM VCSH OVC040=

USA.gov is the U.S. government's official web portal to all federal, state and local government web resources and services.